createdAt,value
2022-11-05T00:02:24.368Z,9.16
2022-11-05T00:05:09.194Z,9.13
2022-11-05T00:08:06.346Z,9.04
2022-11-05T00:10:36.742Z,8.97
2022-11-05T00:13:27.562Z,8.94
2022-11-05T00:16:12.760Z,8.95
2022-11-05T00:18:42.207Z,8.90
2022-11-05T00:21:28.957Z,8.87
2022-11-05T00:24:21.723Z,8.78
2022-11-05T00:26:50.469Z,8.76
2022-11-05T00:29:16.864Z,8.73
2022-11-05T00:31:43.243Z,8.72
2022-11-05T00:34:11.076Z,8.69
2022-11-05T00:36:37.524Z,8.74
2022-11-05T00:39:05.897Z,8.71
2022-11-05T00:41:32.300Z,8.70
2022-11-05T00:44:17.766Z,8.68
2022-11-05T00:46:44.149Z,8.58
2022-11-05T00:49:30.147Z,8.53
2022-11-05T00:52:15.442Z,8.46
2022-11-05T00:54:41.843Z,8.37
2022-11-05T00:57:08.217Z,8.35
2022-11-05T00:59:34.613Z,8.30
2022-11-05T01:02:09.786Z,8.28
2022-11-05T01:04:36.203Z,8.20
2022-11-05T01:07:02.594Z,8.20
2022-11-05T01:09:29.042Z,8.22
2022-11-05T01:11:55.764Z,8.27
2022-11-05T01:14:22.156Z,8.27
2022-11-05T01:16:48.718Z,8.26
2022-11-05T01:19:15.357Z,8.22
2022-11-05T01:21:41.819Z,8.08
2022-11-05T01:24:17.801Z,8.00
2022-11-05T01:26:44.229Z,7.88
2022-11-05T01:29:11.070Z,7.99
2022-11-05T01:31:37.565Z,7.96
2022-11-05T01:34:04.041Z,7.91
2022-11-05T01:36:30.438Z,7.82
2022-11-05T01:38:56.962Z,7.80
2022-11-05T01:41:23.551Z,7.75
2022-11-05T01:43:56.562Z,7.79
2022-11-05T01:46:49.204Z,7.79
2022-11-05T01:49:29.021Z,7.68
2022-11-05T01:52:07.469Z,7.56
2022-11-05T01:54:35.168Z,7.57
2022-11-05T01:57:17.798Z,7.48
2022-11-05T01:59:49.640Z,7.48
2022-11-05T02:02:29.470Z,7.44
2022-11-05T02:05:00.635Z,7.41
2022-11-05T02:07:33.606Z,7.41
2022-11-05T02:10:04.209Z,7.42
2022-11-05T02:12:42.106Z,7.42
2022-11-05T02:15:13.434Z,7.38
2022-11-05T02:17:55.532Z,7.44
2022-11-05T02:20:27.906Z,7.34
2022-11-05T02:23:41.035Z,7.33
2022-11-05T02:26:44.274Z,7.36
2022-11-05T02:29:55.248Z,7.35
2022-11-05T02:32:50.769Z,7.36
2022-11-05T02:35:48.874Z,7.32
2022-11-05T02:38:38.973Z,7.28
2022-11-05T02:41:22.179Z,7.26
2022-11-05T02:44:17.608Z,7.27
2022-11-05T02:47:12.885Z,7.22
2022-11-05T02:49:48.136Z,7.29
2022-11-05T02:52:21.990Z,7.27
2022-11-05T02:55:03.260Z,7.26
2022-11-05T02:57:30.760Z,7.22
2022-11-05T03:00:05.779Z,7.21
2022-11-05T03:02:33.059Z,7.25
2022-11-05T03:05:00.921Z,7.22
2022-11-05T03:07:36.577Z,7.22
2022-11-05T03:10:11.534Z,7.24
2022-11-05T03:12:51.848Z,7.26
2022-11-05T03:15:30.457Z,7.25
2022-11-05T03:18:38.743Z,7.35
2022-11-05T03:21:09.236Z,7.37
2022-11-05T03:23:58.826Z,7.39
2022-11-05T03:26:32.006Z,7.40
2022-11-05T03:29:07.167Z,7.44
2022-11-05T03:31:36.525Z,7.39
2022-11-05T03:34:06.692Z,7.36
2022-11-05T03:36:41.818Z,7.36
2022-11-05T03:39:13.757Z,7.35
2022-11-05T03:41:44.371Z,7.28
2022-11-05T03:44:13.808Z,7.30
2022-11-05T03:46:49.290Z,7.29
2022-11-05T03:49:21.398Z,7.27
2022-11-05T03:52:13.246Z,7.20
2022-11-05T03:54:40.168Z,7.19
2022-11-05T03:57:10.963Z,7.17
2022-11-05T03:59:43.940Z,7.20
2022-11-05T04:02:18.695Z,7.12
2022-11-05T04:04:45.813Z,7.03
2022-11-05T04:07:31.029Z,6.91
2022-11-05T04:10:16.176Z,6.89
2022-11-05T04:13:01.213Z,6.88
2022-11-05T04:15:29.603Z,6.96
2022-11-05T04:17:58.797Z,6.99
2022-11-05T04:21:00.347Z,6.95
2022-11-05T04:23:45.526Z,6.98
2022-11-05T04:26:11.912Z,7.01
2022-11-05T04:28:56.872Z,7.04
2022-11-05T04:31:26.267Z,7.12
2022-11-05T04:33:52.647Z,7.07
2022-11-05T04:36:19.641Z,6.96
2022-11-05T04:38:46.044Z,7.05
2022-11-05T04:41:13.903Z,7.10
2022-11-05T04:43:40.398Z,7.09
2022-11-05T04:46:07.325Z,6.99
2022-11-05T04:48:33.914Z,7.02
2022-11-05T04:51:06.180Z,6.99
2022-11-05T04:53:32.743Z,6.91
2022-11-05T04:56:35.785Z,6.96
2022-11-05T04:59:02.322Z,6.96
2022-11-05T05:01:33.238Z,6.98
2022-11-05T05:03:59.758Z,6.94
2022-11-05T05:06:26.623Z,6.95
2022-11-05T05:08:53.147Z,6.91
2022-11-05T05:11:21.237Z,6.87
2022-11-05T05:13:50.783Z,6.84
2022-11-05T05:16:24.132Z,6.84
2022-11-05T05:18:57.379Z,6.78
2022-11-05T05:21:39.126Z,6.77
2022-11-05T05:24:11.237Z,6.79
2022-11-05T05:26:39.217Z,6.78
2022-11-05T05:29:06.736Z,6.74
2022-11-05T05:31:33.429Z,6.77
2022-11-05T05:34:00.190Z,6.77
2022-11-05T05:36:27.191Z,6.76
2022-11-05T05:38:53.671Z,6.76
2022-11-05T05:41:29.211Z,6.77
2022-11-05T05:43:55.680Z,6.80
2022-11-05T05:46:22.142Z,6.82
2022-11-05T05:48:51.258Z,6.80
2022-11-05T05:51:18.947Z,6.81
2022-11-05T05:53:45.470Z,6.85
2022-11-05T05:56:14.848Z,6.87
2022-11-05T05:58:49.980Z,6.86
2022-11-05T06:01:19.685Z,6.87
2022-11-05T06:03:51.562Z,6.84
2022-11-05T06:06:19.960Z,6.81
2022-11-05T06:08:46.785Z,6.76
2022-11-05T06:11:13.706Z,6.76
2022-11-05T06:13:40.127Z,6.75
2022-11-05T06:16:13.003Z,6.77
2022-11-05T06:18:39.453Z,6.75
2022-11-05T06:21:15.721Z,6.71
2022-11-05T06:23:44.266Z,6.71
2022-11-05T06:26:42.815Z,6.74
2022-11-05T06:29:10.622Z,6.79
2022-11-05T06:31:38.496Z,6.82
2022-11-05T06:34:04.895Z,6.83
2022-11-05T06:36:31.348Z,6.85
2022-11-05T06:38:57.723Z,6.91
2022-11-05T06:41:24.101Z,6.91
2022-11-05T06:43:50.594Z,6.88
2022-11-05T06:46:17.062Z,6.85
2022-11-05T06:48:43.485Z,6.88
2022-11-05T06:51:09.943Z,6.88
2022-11-05T06:53:36.393Z,6.84
2022-11-05T06:56:05.624Z,6.86
2022-11-05T06:58:32.298Z,6.88
2022-11-05T07:01:04.523Z,6.89
2022-11-05T07:03:31.353Z,6.93
2022-11-05T07:06:00.698Z,6.97
2022-11-05T07:08:31.390Z,6.99
2022-11-05T07:10:58.445Z,6.98
2022-11-05T07:13:29.418Z,7.07
2022-11-05T07:15:56.586Z,7.10
2022-11-05T07:18:23.738Z,7.09
2022-11-05T07:20:50.145Z,7.09
2022-11-05T07:23:16.922Z,7.15
2022-11-05T07:25:43.717Z,7.19
2022-11-05T07:28:10.880Z,7.24
2022-11-05T07:30:37.935Z,7.28
2022-11-05T07:33:04.406Z,7.30
2022-11-05T07:35:30.985Z,7.38
2022-11-05T07:37:57.727Z,7.39
2022-11-05T07:40:26.202Z,7.45
2022-11-05T07:42:54.643Z,7.51
2022-11-05T07:45:30.958Z,7.53
2022-11-05T07:48:00.334Z,7.62
2022-11-05T07:50:38.387Z,7.61
2022-11-05T07:53:14.979Z,7.73
2022-11-05T07:55:52.462Z,7.78
2022-11-05T07:58:18.922Z,7.86
2022-11-05T08:00:58.866Z,7.94
2022-11-05T08:03:25.537Z,7.94
2022-11-05T08:05:51.992Z,8.07
2022-11-05T08:08:19.780Z,8.06
2022-11-05T08:10:47.144Z,8.16
2022-11-05T08:13:14.721Z,8.18
2022-11-05T08:15:42.949Z,8.28
2022-11-05T08:18:14.978Z,8.36
2022-11-05T08:20:43.216Z,8.47
2022-11-05T08:23:10.653Z,8.51
2022-11-05T08:25:37.482Z,8.58
2022-11-05T08:28:07.512Z,8.71
2022-11-05T08:30:35.216Z,8.78
2022-11-05T08:33:05.505Z,8.74
2022-11-05T08:35:34.478Z,8.88
2022-11-05T08:38:03.978Z,8.95
2022-11-05T08:40:33.176Z,9.08
2022-11-05T08:43:02.704Z,9.14
2022-11-05T08:45:33.572Z,9.19
2022-11-05T08:48:03.860Z,9.34
2022-11-05T08:50:31.069Z,9.37
2022-11-05T08:52:57.904Z,9.35
2022-11-05T08:55:24.872Z,9.50
2022-11-05T08:57:59.210Z,9.67
2022-11-05T09:00:27.389Z,9.62
2022-11-05T09:02:54.211Z,9.69
2022-11-05T09:05:21.210Z,9.76
2022-11-05T09:07:47.876Z,9.86
2022-11-05T09:10:14.856Z,10.02
2022-11-05T09:12:41.511Z,10.09
2022-11-05T09:15:09.273Z,10.28
2022-11-05T09:17:35.770Z,10.36
2022-11-05T09:20:03.628Z,10.33
2022-11-05T09:22:30.256Z,10.50
2022-11-05T09:24:56.729Z,10.53
2022-11-05T09:27:23.184Z,10.62
2022-11-05T09:29:49.605Z,10.63
2022-11-05T09:32:19.318Z,10.80
2022-11-05T09:34:45.820Z,10.76
2022-11-05T09:37:12.263Z,10.93
2022-11-05T09:39:38.653Z,10.97
2022-11-05T09:42:07.934Z,11.07
2022-11-05T09:44:42.945Z,11.18
2022-11-05T09:47:53.628Z,11.41
2022-11-05T09:50:25.996Z,11.58
2022-11-05T09:52:52.429Z,11.65
2022-11-05T09:55:32.385Z,11.82
2022-11-05T09:58:10.780Z,12.01
2022-11-05T10:00:37.403Z,11.98
2022-11-05T10:03:11.778Z,12.07
2022-11-05T10:05:40.324Z,12.03
2022-11-05T10:08:16.907Z,12.10
2022-11-05T10:10:47.488Z,12.21
2022-11-05T10:13:39.761Z,12.42
2022-11-05T10:16:41.672Z,12.52
2022-11-05T10:19:39.355Z,12.57
2022-11-05T10:22:16.199Z,12.68
2022-11-05T10:24:50.998Z,12.82
2022-11-05T10:27:25.172Z,13.17
2022-11-05T10:29:52.022Z,13.31
2022-11-05T10:32:28.901Z,13.24
2022-11-05T10:34:59.445Z,13.58
2022-11-05T10:37:27.720Z,13.77
2022-11-05T10:39:54.519Z,14.09
2022-11-05T10:43:06.091Z,14.27
2022-11-05T10:45:44.638Z,14.53
2022-11-05T10:48:45.258Z,14.43
2022-11-05T10:51:12.613Z,14.17
2022-11-05T10:53:42.465Z,14.16
2022-11-05T10:56:33.144Z,14.22
2022-11-05T10:59:01.863Z,14.21
2022-11-05T11:01:29.258Z,14.11
2022-11-05T11:04:17.253Z,14.62
2022-11-05T11:06:49.627Z,15.10
2022-11-05T11:09:24.181Z,14.99
2022-11-05T11:11:59.343Z,15.22
2022-11-05T11:14:26.425Z,15.00
2022-11-05T11:16:57.634Z,14.62
2022-11-05T11:19:31.493Z,14.56
2022-11-05T11:22:03.875Z,14.52
2022-11-05T11:24:36.928Z,14.20
2022-11-05T11:27:26.906Z,14.34
2022-11-05T11:30:05.291Z,14.69
2022-11-05T11:32:36.602Z,14.58
2022-11-05T11:35:04.556Z,14.65
2022-11-05T11:37:42.122Z,14.62
2022-11-05T11:40:25.111Z,14.68
2022-11-05T11:42:55.832Z,14.78
2022-11-05T11:45:36.519Z,15.27
2022-11-05T11:48:06.294Z,15.45
2022-11-05T11:50:39.812Z,15.82
2022-11-05T11:53:21.536Z,16.77
2022-11-05T11:56:18.495Z,17.74
2022-11-05T11:58:47.794Z,18.11
2022-11-05T12:01:27.219Z,17.92
2022-11-05T12:04:11.537Z,17.07
2022-11-05T12:07:12.155Z,16.14
2022-11-05T12:09:53.856Z,15.06
2022-11-05T12:12:46.774Z,14.89
2022-11-05T12:15:38.112Z,14.52
2022-11-05T12:18:18.899Z,14.47
2022-11-05T12:20:48.090Z,14.34
2022-11-05T12:23:39.198Z,14.13
2022-11-05T12:26:23.993Z,14.07
2022-11-05T12:29:17.374Z,14.26
2022-11-05T12:31:47.910Z,14.16
2022-11-05T12:34:48.078Z,13.97
2022-11-05T12:38:05.880Z,14.06
2022-11-05T12:41:00.031Z,14.06
2022-11-05T12:43:40.463Z,13.89
2022-11-05T12:46:16.762Z,13.89
2022-11-05T12:49:01.458Z,13.76
2022-11-05T12:51:45.746Z,13.98
2022-11-05T12:54:54.729Z,13.77
2022-11-05T12:57:23.044Z,13.77
2022-11-05T13:00:06.282Z,13.67
2022-11-05T13:02:48.223Z,13.67
2022-11-05T13:05:29.680Z,13.58
2022-11-05T13:08:02.178Z,13.56
2022-11-05T13:10:52.526Z,13.56
2022-11-05T13:13:37.130Z,13.75
2022-11-05T13:16:16.934Z,13.78
2022-11-05T13:18:51.987Z,13.68
2022-11-05T13:21:24.126Z,13.47
2022-11-05T13:24:18.718Z,13.41
2022-11-05T13:26:54.242Z,13.54
2022-11-05T13:29:28.598Z,13.62
2022-11-05T13:32:08.193Z,13.54
2022-11-05T13:34:37.636Z,13.43
2022-11-05T13:37:25.304Z,13.54
2022-11-05T13:40:01.519Z,13.70
2022-11-05T13:42:40.038Z,13.59
2022-11-05T13:45:24.706Z,13.61
2022-11-05T13:48:23.674Z,13.84
2022-11-05T13:51:27.311Z,13.86
2022-11-05T13:54:12.712Z,14.06
2022-11-05T13:57:03.581Z,13.92
2022-11-05T13:59:35.956Z,13.96
2022-11-05T14:02:11.945Z,13.75
2022-11-05T14:04:47.809Z,13.76
2022-11-05T14:07:34.350Z,13.42
2022-11-05T14:10:21.861Z,13.35
2022-11-05T14:12:53.010Z,13.36
2022-11-05T14:15:29.642Z,13.30
2022-11-05T14:18:16.860Z,13.20
2022-11-05T14:20:47.593Z,13.10
2022-11-05T14:23:23.421Z,13.02
2022-11-05T14:26:12.476Z,12.97
2022-11-05T14:28:43.159Z,12.98
2022-11-05T14:31:18.696Z,12.97
2022-11-05T14:34:14.429Z,12.96
2022-11-05T14:36:43.262Z,12.88
2022-11-05T14:39:26.474Z,12.93
2022-11-05T14:42:02.981Z,12.92
2022-11-05T14:44:32.981Z,12.94
2022-11-05T14:47:05.767Z,12.84
2022-11-05T14:49:53.238Z,12.80
2022-11-05T14:52:20.477Z,12.74
2022-11-05T14:54:58.212Z,12.80
2022-11-05T14:57:43.058Z,12.73
2022-11-05T15:00:29.517Z,12.79
2022-11-05T15:03:05.307Z,12.72
2022-11-05T15:05:33.203Z,12.68
2022-11-05T15:08:20.197Z,12.66
2022-11-05T15:10:48.127Z,12.76
2022-11-05T15:13:30.392Z,12.73
2022-11-05T15:15:58.155Z,12.71
2022-11-05T15:18:40.513Z,12.55
2022-11-05T15:21:13.211Z,12.61
2022-11-05T15:23:43.408Z,12.56
2022-11-05T15:26:23.622Z,12.58
2022-11-05T15:28:52.439Z,12.57
2022-11-05T15:31:33.376Z,12.46
2022-11-05T15:34:33.288Z,12.53
2022-11-05T15:37:20.163Z,12.49
2022-11-05T15:39:48.344Z,12.47
2022-11-05T15:42:22.332Z,12.52
2022-11-05T15:44:51.134Z,12.49
2022-11-05T15:47:19.703Z,12.46
2022-11-05T15:49:52.885Z,12.45
2022-11-05T15:52:22.108Z,12.45
2022-11-05T15:55:06.720Z,12.32
2022-11-05T15:57:40.057Z,12.37
2022-11-05T16:00:17.889Z,12.23
2022-11-05T16:03:07.848Z,12.28
2022-11-05T16:05:41.716Z,12.29
2022-11-05T16:08:16.925Z,12.27
2022-11-05T16:10:47.992Z,12.26
2022-11-05T16:13:37.755Z,12.20
2022-11-05T16:16:33.920Z,12.22
2022-11-05T16:19:00.683Z,12.21
2022-11-05T16:21:27.529Z,12.24
2022-11-05T16:23:59.945Z,12.21
2022-11-05T16:29:38.029Z,12.15
2022-11-05T16:32:16.689Z,12.13
2022-11-05T16:35:06.886Z,12.12
2022-11-05T16:37:41.591Z,12.06
2022-11-05T16:40:16.904Z,12.08
2022-11-05T16:42:44.136Z,12.12
2022-11-05T16:45:13.564Z,12.10
2022-11-05T16:47:40.016Z,12.07
2022-11-05T16:50:29.989Z,12.10
2022-11-05T16:52:56.467Z,12.10
2022-11-05T16:55:22.926Z,12.05
2022-11-05T16:57:52.093Z,12.03
2022-11-05T17:00:20.576Z,12.11
2022-11-05T17:02:48.314Z,12.11
2022-11-05T17:05:22.596Z,12.07
2022-11-05T17:07:49.167Z,12.07
2022-11-05T17:10:16.162Z,12.03
2022-11-05T17:12:42.983Z,12.02
2022-11-05T17:15:31.069Z,12.07
2022-11-05T17:17:58.864Z,12.02
2022-11-05T17:20:40.306Z,12.03
2022-11-05T17:23:09.654Z,12.07
2022-11-05T17:25:43.574Z,11.96
2022-11-05T17:28:10.661Z,12.02
2022-11-05T17:30:41.721Z,12.05
2022-11-05T17:33:10.848Z,11.97
2022-11-05T17:35:41.884Z,11.98
2022-11-05T17:38:09.325Z,11.93
2022-11-05T17:40:36.763Z,12.04
2022-11-05T17:43:03.884Z,12.03
2022-11-05T17:45:30.929Z,12.02
2022-11-05T17:47:57.368Z,12.05
2022-11-05T17:50:24.669Z,12.03
2022-11-05T17:52:51.239Z,12.03
2022-11-05T17:55:17.771Z,12.10
2022-11-05T17:57:46.554Z,12.06
2022-11-05T18:00:16.081Z,12.08
2022-11-05T18:02:42.776Z,12.16
2022-11-05T18:05:10.082Z,12.05
2022-11-05T18:07:36.824Z,12.05
2022-11-05T18:10:03.697Z,12.12
2022-11-05T18:12:30.102Z,12.17
2022-11-05T18:14:56.557Z,12.07
2022-11-05T18:17:22.997Z,12.05
2022-11-05T18:19:49.533Z,12.04
2022-11-05T18:22:18.282Z,12.06
2022-11-05T18:24:45.259Z,12.02
2022-11-05T18:27:12.333Z,11.98
2022-11-05T18:29:38.833Z,12.03
2022-11-05T18:32:05.417Z,12.04
2022-11-05T18:34:31.992Z,12.07
2022-11-05T18:36:58.544Z,11.99
2022-11-05T18:39:25.034Z,11.98
2022-11-05T18:41:51.477Z,12.04
2022-11-05T18:44:22.611Z,11.92
2022-11-05T18:46:58.126Z,11.92
2022-11-05T18:49:25.589Z,11.91
2022-11-05T18:51:52.015Z,11.93
2022-11-05T18:54:18.656Z,11.93
2022-11-05T18:56:45.676Z,11.86
2022-11-05T18:59:36.754Z,11.95
2022-11-05T19:02:00.306Z,11.92
2022-11-05T19:04:27.007Z,11.93
2022-11-05T19:06:53.553Z,11.98
2022-11-05T19:09:20.797Z,11.96
2022-11-05T19:11:47.483Z,11.92
2022-11-05T19:14:13.963Z,11.93
2022-11-05T19:16:40.382Z,12.00
2022-11-05T19:19:06.924Z,11.84
2022-11-05T19:21:36.315Z,11.91
2022-11-05T19:24:03.891Z,11.89
2022-11-05T19:26:30.802Z,11.78
2022-11-05T19:28:59.497Z,11.82
2022-11-05T19:31:26.895Z,11.83
2022-11-05T19:33:54.437Z,11.86
2022-11-05T19:36:23.136Z,11.83
2022-11-05T19:38:57.540Z,11.88
2022-11-05T19:41:27.601Z,11.89
2022-11-05T19:43:55.125Z,11.77
2022-11-05T19:46:23.614Z,11.83
2022-11-05T19:48:50.805Z,11.81
2022-11-05T19:51:20.859Z,11.82
2022-11-05T19:53:47.498Z,11.82
2022-11-05T19:56:16.978Z,11.67
2022-11-05T19:58:44.255Z,11.68
2022-11-05T20:01:13.647Z,11.66
2022-11-05T20:03:41.251Z,11.59
2022-11-05T20:06:11.133Z,11.57
2022-11-05T20:08:59.344Z,11.64
2022-11-05T20:11:28.230Z,11.59
2022-11-05T20:13:54.759Z,11.58
2022-11-05T20:16:32.349Z,11.57
2022-11-05T20:18:59.077Z,11.55
2022-11-05T20:21:25.624Z,11.57
2022-11-05T20:23:52.178Z,11.56
2022-11-05T20:26:18.622Z,11.64
2022-11-05T20:28:45.710Z,11.56
2022-11-05T20:31:15.503Z,11.52
2022-11-05T20:33:43.084Z,11.56
2022-11-05T20:36:16.955Z,11.54
2022-11-05T20:38:47.061Z,11.61
2022-11-05T20:41:13.709Z,11.52
2022-11-05T20:43:41.429Z,11.52
2022-11-05T20:46:09.809Z,11.53
2022-11-05T20:48:36.773Z,11.49
2022-11-05T20:51:08.371Z,11.58
2022-11-05T20:53:35.969Z,11.39
2022-11-05T20:56:07.616Z,11.39
2022-11-05T20:58:35.750Z,11.48
2022-11-05T21:01:02.957Z,11.53
2022-11-05T21:03:29.359Z,11.41
2022-11-05T21:05:59.791Z,11.53
2022-11-05T21:08:27.796Z,11.43
2022-11-05T21:10:55.216Z,11.48
2022-11-05T21:13:22.617Z,11.39
2022-11-05T21:15:50.882Z,11.38
2022-11-05T21:18:18.661Z,11.51
2022-11-05T21:20:46.247Z,11.48
2022-11-05T21:23:13.288Z,11.50
2022-11-05T21:25:41.208Z,11.45
2022-11-05T21:28:08.522Z,11.38
2022-11-05T21:30:37.729Z,11.49
2022-11-05T21:33:05.348Z,11.44
2022-11-05T21:35:32.169Z,11.31
2022-11-05T21:37:58.600Z,11.38
2022-11-05T21:40:25.156Z,11.23
2022-11-05T21:42:51.801Z,11.26
2022-11-05T21:45:18.254Z,11.36
2022-11-05T21:47:44.637Z,11.21
2022-11-05T21:50:11.203Z,11.33
2022-11-05T21:52:56.005Z,11.31
2022-11-05T21:55:22.425Z,11.26
2022-11-05T21:58:07.685Z,11.32
2022-11-05T22:00:34.135Z,11.25
2022-11-05T22:03:00.658Z,11.23
2022-11-05T22:05:27.650Z,11.24
2022-11-05T22:07:54.071Z,11.23
2022-11-05T22:10:20.685Z,11.20
2022-11-05T22:12:47.101Z,11.14
2022-11-05T22:15:14.378Z,11.21
2022-11-05T22:17:46.234Z,11.16
2022-11-05T22:20:13.851Z,11.29
2022-11-05T22:22:40.305Z,11.22
2022-11-05T22:25:07.079Z,11.14
2022-11-05T22:27:33.479Z,11.16
2022-11-05T22:29:59.899Z,11.16
2022-11-05T22:32:26.284Z,11.13
2022-11-05T22:34:52.754Z,11.17
2022-11-05T22:37:19.221Z,11.09
2022-11-05T22:39:45.652Z,11.14
2022-11-05T22:42:12.479Z,11.06
2022-11-05T22:44:38.984Z,11.07
2022-11-05T22:47:06.045Z,11.07
2022-11-05T22:49:32.975Z,11.06
2022-11-05T22:52:02.361Z,11.01
2022-11-05T22:54:28.930Z,10.95
2022-11-05T22:56:55.348Z,11.03
2022-11-05T22:59:21.816Z,10.96
2022-11-05T23:01:49.312Z,10.94
2022-11-05T23:04:16.389Z,10.86
2022-11-05T23:07:02.003Z,10.90
2022-11-05T23:09:52.119Z,10.94
2022-11-05T23:12:28.533Z,10.89
2022-11-05T23:14:57.115Z,10.88
2022-11-05T23:17:42.717Z,10.88
2022-11-05T23:20:35.329Z,10.88
2022-11-05T23:23:20.631Z,10.91
2022-11-05T23:25:47.168Z,10.90
2022-11-05T23:28:13.949Z,10.93
2022-11-05T23:31:03.491Z,10.82
2022-11-05T23:33:33.871Z,10.91
2022-11-05T23:36:19.226Z,10.90
2022-11-05T23:38:45.641Z,10.90
2022-11-05T23:41:30.401Z,10.86
2022-11-05T23:44:15.333Z,10.80
2022-11-05T23:47:00.188Z,10.98
2022-11-05T23:49:27.842Z,10.86
2022-11-05T23:51:54.240Z,10.86
2022-11-05T23:54:21.888Z,10.92
2022-11-05T23:56:48.308Z,10.89
2022-11-05T23:59:14.743Z,10.93
